createdAt,value
2023-03-12T00:02:05.105Z,5.20
2023-03-12T00:06:19.762Z,5.43
2023-03-12T00:10:33.542Z,8.57
2023-03-12T00:14:45.857Z,10.38
2023-03-12T00:19:00.605Z,12.02
2023-03-12T00:23:13.508Z,11.32
2023-03-12T00:27:27.727Z,13.98
2023-03-12T00:31:42.805Z,13.00
2023-03-12T00:35:56.376Z,10.23
2023-03-12T00:40:11.866Z,10.27
2023-03-12T00:44:24.272Z,10.45
2023-03-12T00:48:36.942Z,11.77
2023-03-12T00:52:49.251Z,13.15
2023-03-12T00:57:01.731Z,13.38
2023-03-12T01:01:14.258Z,13.68
2023-03-12T01:05:27.187Z,14.63
2023-03-12T01:09:40.481Z,13.50
2023-03-12T01:13:53.058Z,10.35
2023-03-12T01:18:07.231Z,11.27
2023-03-12T01:22:19.550Z,11.27
2023-03-12T01:26:32.149Z,11.43
2023-03-12T01:30:46.206Z,11.07
2023-03-12T01:35:00.961Z,9.80
2023-03-12T01:39:15.466Z,8.25
2023-03-12T01:43:33.859Z,7.22
2023-03-12T01:47:48.146Z,7.00
2023-03-12T01:52:06.417Z,5.30
2023-03-12T01:56:28.611Z,4.88
2023-03-12T02:00:44.892Z,3.60
2023-03-12T02:05:11.979Z,4.28
2023-03-12T02:09:24.962Z,4.35
2023-03-12T02:13:39.551Z,4.47
2023-03-12T02:17:52.387Z,3.75
2023-03-12T02:22:06.139Z,3.88
2023-03-12T02:26:20.395Z,4.63
2023-03-12T02:30:37.029Z,5.20
2023-03-12T02:34:58.970Z,5.50
2023-03-12T02:39:12.898Z,6.70
2023-03-12T02:43:28.595Z,5.28
2023-03-12T02:47:41.862Z,4.18
2023-03-12T02:51:56.099Z,3.42
2023-03-12T02:56:10.956Z,2.63
2023-03-12T03:00:24.825Z,1.63
2023-03-12T03:04:38.502Z,1.75
2023-03-12T03:08:50.880Z,1.27
2023-03-12T03:13:03.297Z,1.17
2023-03-12T03:17:15.682Z,0.80
2023-03-12T03:21:28.008Z,0.88
2023-03-12T03:25:40.378Z,0.50
2023-03-12T03:29:52.776Z,0.60
2023-03-12T03:34:05.541Z,0.57
2023-03-12T03:38:18.289Z,0.50
2023-03-12T03:42:30.799Z,0.50
2023-03-12T03:46:45.237Z,0.65
2023-03-12T03:51:02.321Z,0.70
2023-03-12T03:55:17.326Z,0.50
2023-03-12T03:59:29.673Z,0.68
2023-03-12T04:03:44.418Z,1.05
2023-03-12T04:08:14.367Z,0.88
2023-03-12T04:12:26.878Z,0.50
2023-03-12T04:16:41.268Z,0.60
2023-03-12T04:20:54.153Z,0.55
2023-03-12T04:25:07.740Z,0.70
2023-03-12T04:29:20.763Z,0.50
2023-03-12T04:33:36.185Z,0.70
2023-03-12T04:37:49.014Z,0.60
2023-03-12T04:42:01.997Z,0.52
2023-03-12T04:46:14.484Z,0.82
2023-03-12T04:50:28.693Z,1.27
2023-03-12T04:54:41.403Z,1.10
2023-03-12T04:58:54.068Z,2.33
2023-03-12T05:03:08.735Z,2.65
2023-03-12T05:07:22.555Z,3.90
2023-03-12T05:11:35.408Z,5.90
2023-03-12T05:15:51.007Z,6.45
2023-03-12T05:20:06.581Z,6.60
2023-03-12T05:24:19.429Z,7.38
2023-03-12T05:28:32.125Z,6.78
2023-03-12T05:32:47.583Z,5.97
2023-03-12T05:37:09.851Z,6.45
2023-03-12T05:41:30.001Z,6.40
2023-03-12T05:45:49.126Z,6.05
2023-03-12T05:50:01.708Z,5.40
2023-03-12T05:54:16.789Z,5.50
2023-03-12T05:58:32.811Z,5.00
2023-03-12T06:02:45.333Z,5.15
2023-03-12T06:06:58.094Z,4.43
2023-03-12T06:11:13.453Z,4.10
2023-03-12T06:15:26.101Z,4.80
2023-03-12T06:19:38.705Z,5.65
2023-03-12T06:23:52.250Z,5.30
2023-03-12T06:28:11.125Z,5.85
2023-03-12T06:32:23.750Z,5.40
2023-03-12T06:36:36.560Z,4.30
2023-03-12T06:41:00.452Z,2.47
2023-03-12T06:45:12.869Z,1.73
2023-03-12T06:49:25.869Z,2.33
2023-03-12T06:53:41.785Z,2.22
2023-03-12T06:57:54.555Z,2.55
2023-03-12T07:02:07.126Z,3.20
2023-03-12T07:06:23.922Z,3.60
2023-03-12T07:10:36.316Z,5.43
2023-03-12T07:14:48.674Z,7.38
2023-03-12T07:19:02.497Z,7.70
2023-03-12T07:23:15.444Z,7.43
2023-03-12T07:27:28.484Z,7.63
2023-03-12T07:31:40.928Z,7.88
2023-03-12T07:35:53.410Z,7.55
2023-03-12T07:40:07.770Z,7.65
2023-03-12T07:44:20.267Z,7.47
2023-03-12T07:48:32.600Z,6.85
2023-03-12T07:52:45.585Z,6.85
2023-03-12T07:56:58.164Z,6.65
2023-03-12T08:01:10.722Z,6.28
2023-03-12T08:05:25.140Z,6.80
2023-03-12T08:09:39.026Z,8.18
2023-03-12T08:13:51.360Z,6.20
2023-03-12T08:18:03.785Z,5.38
2023-03-12T08:22:16.383Z,5.30
2023-03-12T08:26:28.724Z,4.30
2023-03-12T08:30:46.179Z,4.00
2023-03-12T08:34:59.797Z,4.60
2023-03-12T08:39:12.136Z,3.97
2023-03-12T08:43:25.200Z,3.60
2023-03-12T08:47:40.076Z,3.65
2023-03-12T08:51:52.764Z,5.03
2023-03-12T08:56:06.412Z,5.68
2023-03-12T09:00:19.276Z,5.72
2023-03-12T09:04:31.667Z,5.63
2023-03-12T09:08:45.383Z,5.07
2023-03-12T09:12:57.669Z,4.70
2023-03-12T09:17:10.079Z,3.78
2023-03-12T09:21:22.462Z,3.40
2023-03-12T09:25:34.758Z,3.10
2023-03-12T09:29:59.518Z,3.50
2023-03-12T09:34:13.026Z,3.47
2023-03-12T09:38:26.167Z,3.15
2023-03-12T09:42:52.435Z,3.25
2023-03-12T09:47:16.720Z,2.50
2023-03-12T09:51:35.562Z,1.85
2023-03-12T09:55:51.822Z,2.57
2023-03-12T10:00:07.586Z,2.90
2023-03-12T10:04:58.243Z,2.70
2023-03-12T10:09:39.237Z,2.40
2023-03-12T10:13:59.931Z,2.53
2023-03-12T10:18:25.216Z,2.70
2023-03-12T10:22:56.090Z,2.40
2023-03-12T10:27:19.162Z,2.22
2023-03-12T10:31:56.074Z,2.95
2023-03-12T10:36:21.182Z,1.90
2023-03-12T10:40:36.059Z,2.03
2023-03-12T10:44:53.059Z,2.03
2023-03-12T10:49:23.638Z,1.80
2023-03-12T10:53:48.486Z,1.80
2023-03-12T10:58:01.006Z,2.33
2023-03-12T11:02:35.437Z,2.35
2023-03-12T11:07:12.383Z,1.38
2023-03-12T11:11:33.377Z,1.60
2023-03-12T11:15:45.732Z,2.10
2023-03-12T11:19:58.160Z,1.50
2023-03-12T11:24:15.242Z,1.83
2023-03-12T11:28:43.815Z,1.38
2023-03-12T11:32:58.321Z,1.67
2023-03-12T11:37:55.346Z,2.00
2023-03-12T11:42:36.797Z,1.90
2023-03-12T11:47:16.864Z,1.90
2023-03-12T11:51:55.984Z,1.80
2023-03-12T11:56:14.308Z,1.67
2023-03-12T12:00:57.085Z,1.63
2023-03-12T12:05:32.652Z,1.50
2023-03-12T12:10:10.133Z,1.70
2023-03-12T12:14:45.650Z,1.30
2023-03-12T12:19:34.462Z,1.70
2023-03-12T12:23:58.898Z,2.10
2023-03-12T12:28:26.395Z,1.60
2023-03-12T12:33:17.492Z,1.67
2023-03-12T12:37:42.035Z,1.90
2023-03-12T12:41:58.642Z,1.70
2023-03-12T12:46:29.327Z,1.30
2023-03-12T12:50:44.417Z,1.50
2023-03-12T12:55:07.941Z,2.10
2023-03-12T12:59:43.434Z,1.55
2023-03-12T13:04:01.833Z,2.17
2023-03-12T13:08:42.537Z,1.52
2023-03-12T13:12:57.048Z,2.00
2023-03-12T13:17:27.670Z,1.58
2023-03-12T13:21:54.476Z,1.55
2023-03-12T13:26:47.858Z,1.52
2023-03-12T13:31:19.917Z,1.52
2023-03-12T13:35:37.123Z,1.70
2023-03-12T13:39:49.824Z,1.50
2023-03-12T13:44:25.440Z,1.50
2023-03-12T13:48:46.223Z,1.77
2023-03-12T13:53:09.541Z,1.50
2023-03-12T13:57:40.484Z,1.40
2023-03-12T14:01:59.393Z,1.13
2023-03-12T14:06:23.747Z,1.15
2023-03-12T14:11:03.724Z,1.40
2023-03-12T14:15:16.778Z,1.48
2023-03-12T14:19:35.807Z,1.38
2023-03-12T14:24:09.012Z,1.30
2023-03-12T14:28:23.603Z,1.50
2023-03-12T14:32:37.829Z,1.20
2023-03-12T14:36:59.488Z,1.50
2023-03-12T14:41:29.502Z,1.73
2023-03-12T14:45:41.848Z,1.70
2023-03-12T14:49:57.347Z,1.92
2023-03-12T14:54:19.622Z,1.42
2023-03-12T14:58:33.444Z,1.27
2023-03-12T15:02:46.872Z,1.75
2023-03-12T15:07:04.852Z,1.98
2023-03-12T15:11:23.424Z,1.88
2023-03-12T15:15:43.117Z,1.80
2023-03-12T15:24:14.343Z,2.10
2023-03-12T15:28:29.095Z,2.10
2023-03-12T15:32:41.553Z,2.40
2023-03-12T15:36:56.643Z,2.10
2023-03-12T15:41:12.619Z,2.40
2023-03-12T15:45:45.519Z,2.20
2023-03-12T15:50:04.968Z,2.22
2023-03-12T15:54:17.244Z,2.30
2023-03-12T15:58:42.759Z,2.50
2023-03-12T16:02:59.233Z,3.00
2023-03-12T16:07:12.592Z,2.80
2023-03-12T16:11:27.400Z,3.08
2023-03-12T16:15:40.485Z,3.20
2023-03-12T16:19:52.764Z,3.45
2023-03-12T16:24:18.437Z,3.35
2023-03-12T16:28:36.274Z,3.75
2023-03-12T16:32:48.823Z,4.07
2023-03-12T16:37:01.189Z,4.55
2023-03-12T16:41:16.709Z,4.60
2023-03-12T16:45:31.962Z,4.68
2023-03-12T16:49:44.752Z,4.30
2023-03-12T16:54:09.497Z,3.72
2023-03-12T16:58:24.926Z,3.33
2023-03-12T17:02:37.198Z,3.60
2023-03-12T17:06:49.482Z,3.85
2023-03-12T17:11:01.920Z,3.92
2023-03-12T17:15:30.737Z,4.20
2023-03-12T17:19:45.460Z,4.07
2023-03-12T17:23:58.105Z,4.70
2023-03-12T17:28:11.764Z,4.63
2023-03-12T17:32:24.386Z,5.50
2023-03-12T17:36:38.125Z,6.30
2023-03-12T17:40:50.671Z,5.30
2023-03-12T17:45:04.561Z,6.18
2023-03-12T17:49:16.817Z,8.18
2023-03-12T17:53:29.248Z,8.30
2023-03-12T17:57:44.834Z,7.57
2023-03-12T18:01:58.398Z,8.45
2023-03-12T18:06:12.303Z,7.53
2023-03-12T18:10:24.742Z,7.43
2023-03-12T18:14:39.757Z,7.65
2023-03-12T18:18:52.940Z,8.93
2023-03-12T18:23:05.423Z,9.77
2023-03-12T18:27:26.602Z,11.30
2023-03-12T18:31:39.103Z,12.02
2023-03-12T18:35:54.538Z,11.40
2023-03-12T18:40:10.234Z,12.63
2023-03-12T18:44:22.646Z,12.43
2023-03-12T18:48:36.016Z,11.50
2023-03-12T18:52:48.394Z,11.75
2023-03-12T18:57:01.509Z,12.43
2023-03-12T19:01:14.230Z,11.52
2023-03-12T19:05:29.726Z,10.65
2023-03-12T19:09:45.317Z,11.63
2023-03-12T19:13:58.143Z,10.93
2023-03-12T19:18:10.497Z,11.95
2023-03-12T19:22:25.863Z,9.05
2023-03-12T19:26:38.414Z,7.72
2023-03-12T19:31:01.079Z,7.20
2023-03-12T19:35:15.062Z,7.68
2023-03-12T19:39:27.478Z,5.10
2023-03-12T19:43:41.067Z,4.60
2023-03-12T19:47:56.600Z,5.07
2023-03-12T19:52:12.121Z,5.38
2023-03-12T19:56:24.496Z,5.70
2023-03-12T20:00:42.078Z,5.55
2023-03-12T20:04:56.074Z,5.80
2023-03-12T20:09:09.896Z,5.38
2023-03-12T20:13:22.454Z,4.72
2023-03-12T20:17:34.929Z,5.28
2023-03-12T20:21:48.528Z,5.32
2023-03-12T20:26:00.888Z,6.28
2023-03-12T20:30:13.728Z,6.15
2023-03-12T20:34:26.189Z,6.30
2023-03-12T20:38:38.613Z,7.10
2023-03-12T20:42:52.426Z,5.88
2023-03-12T20:47:06.278Z,5.93
2023-03-12T20:51:18.816Z,5.72
2023-03-12T20:55:31.212Z,5.55
2023-03-12T20:59:43.818Z,4.15
2023-03-12T21:03:59.318Z,4.53
2023-03-12T21:08:11.729Z,4.13
2023-03-12T21:12:24.160Z,3.83
2023-03-12T21:16:37.284Z,4.22
2023-03-12T21:20:49.773Z,5.03
2023-03-12T21:25:02.349Z,6.85
2023-03-12T21:29:14.824Z,6.45
2023-03-12T21:33:27.114Z,6.85
2023-03-12T21:37:40.472Z,8.95
2023-03-12T21:41:52.804Z,9.02
2023-03-12T21:46:11.215Z,8.38
2023-03-12T21:50:23.722Z,11.20
2023-03-12T21:54:37.198Z,14.88
2023-03-12T21:58:50.264Z,13.00
2023-03-12T22:03:02.558Z,16.13
2023-03-12T22:07:16.258Z,14.07
2023-03-12T22:11:28.625Z,14.48
2023-03-12T22:15:41.021Z,14.02
2023-03-12T22:19:53.490Z,13.35
2023-03-12T22:24:07.136Z,12.45
2023-03-12T22:28:20.025Z,11.60
2023-03-12T22:32:34.949Z,11.18
2023-03-12T22:36:47.166Z,8.80
2023-03-12T22:40:59.575Z,12.85
2023-03-12T22:45:11.974Z,9.38
2023-03-12T22:49:25.322Z,11.48
2023-03-12T22:53:37.599Z,11.85
2023-03-12T22:57:50.023Z,13.02
2023-03-12T23:02:02.495Z,12.93
2023-03-12T23:06:26.290Z,12.60
2023-03-12T23:10:39.194Z,12.13
2023-03-12T23:14:51.698Z,14.07
2023-03-12T23:19:07.243Z,15.02
2023-03-12T23:23:19.901Z,14.80
2023-03-12T23:27:32.161Z,17.13
2023-03-12T23:31:44.695Z,16.50
2023-03-12T23:36:01.300Z,16.85
2023-03-12T23:40:17.090Z,15.50
2023-03-12T23:44:32.913Z,15.45
2023-03-12T23:48:45.954Z,14.90
2023-03-12T23:52:59.216Z,13.85
2023-03-12T23:57:13.295Z,12.40
